SVAX weather

Los Andes Airport
Zulia, Venezuela

Public forecast

Using degrees Celsius for public forecast. Weather courtesy of forecast.io.

Closest aviation weather report (METAR) to Los Andes Airport

Closest report is Alfonso L√≥pez Pumarejo Airport, 47.2 nm (87.5 km) WNW. Retrieved 2019/10/15 19:00 UTC (57 minutes ago):

SKVP 151900Z 10006KT 9999 FEW020 SCT200 34/22 A2986

Closest aviation forecast (TAF) to Los Andes Airport

Forecast is more than 12 hours old.

Closest forecast is Villa del Rosario Airport, 25.3 nm (46.9 km) NE. Retrieved 2019/09/09 18:00 UTC (1 month ago):

TAF SVVS 091700Z 0918/1018 18004KT 9999 BKN016 TX30/0919Z TN22/1008Z TEMPO 0919/0921 9000 DZ TEMPO 0922/1002 24005KT 9999 SCT016 SCT150